createdAt,value
2023-06-17T00:00:56.641Z,17.60
2023-06-17T00:03:23.871Z,17.60
2023-06-17T00:05:52.401Z,17.60
2023-06-17T00:08:20.685Z,17.60
2023-06-17T00:10:47.825Z,17.60
2023-06-17T00:13:20.434Z,17.60
2023-06-17T00:15:49.251Z,17.60
2023-06-17T00:18:21.033Z,17.60
2023-06-17T00:20:48.497Z,17.70
2023-06-17T00:23:15.355Z,17.70
2023-06-17T00:25:43.632Z,17.70
2023-06-17T00:28:10.619Z,17.70
2023-06-17T00:30:38.034Z,17.70
2023-06-17T00:33:05.297Z,17.70
2023-06-17T00:35:32.796Z,17.70
2023-06-17T00:37:59.833Z,17.70
2023-06-17T00:40:26.849Z,17.60
2023-06-17T00:42:55.161Z,17.60
2023-06-17T00:45:22.090Z,17.60
2023-06-17T00:47:49.053Z,17.50
2023-06-17T00:50:17.155Z,17.50
2023-06-17T00:52:46.678Z,17.50
2023-06-17T00:55:14.265Z,17.50
2023-06-17T00:57:41.520Z,17.40
2023-06-17T01:00:12.083Z,17.40
2023-06-17T01:02:44.557Z,17.40
2023-06-17T01:05:13.816Z,17.30
2023-06-17T01:07:51.550Z,17.30
2023-06-17T01:10:22.733Z,17.30
2023-06-17T01:12:51.260Z,17.30
2023-06-17T01:15:20.594Z,17.30
2023-06-17T01:17:48.962Z,17.20
2023-06-17T01:20:16.665Z,17.20
2023-06-17T01:22:46.025Z,17.20
2023-06-17T01:25:15.712Z,17.20
2023-06-17T01:27:42.633Z,17.20
2023-06-17T01:30:11.352Z,17.20
2023-06-17T01:32:38.284Z,17.20
2023-06-17T01:35:12.067Z,17.20
2023-06-17T01:37:43.614Z,17.10
2023-06-17T01:40:13.549Z,17.10
2023-06-17T01:42:45.379Z,17.00
2023-06-17T01:45:14.063Z,17.00
2023-06-17T01:47:42.420Z,16.90
2023-06-17T01:50:10.143Z,16.90
2023-06-17T01:52:37.109Z,16.90
2023-06-17T01:55:04.995Z,16.80
2023-06-17T01:57:32.638Z,16.80
2023-06-17T02:00:00.928Z,16.70
2023-06-17T02:02:29.953Z,16.70
2023-06-17T02:04:57.082Z,16.70
2023-06-17T02:07:25.784Z,16.60
2023-06-17T02:09:53.261Z,16.50
2023-06-17T02:12:20.317Z,16.40
2023-06-17T02:14:47.273Z,16.30
2023-06-17T02:17:15.932Z,16.30
2023-06-17T02:19:43.015Z,16.20
2023-06-17T02:22:11.053Z,16.20
2023-06-17T02:24:38.170Z,16.30
2023-06-17T02:27:06.594Z,16.20
2023-06-17T02:29:33.580Z,16.20
2023-06-17T02:32:01.186Z,16.10
2023-06-17T02:34:30.082Z,16.10
2023-06-17T02:36:58.015Z,16.10
2023-06-17T02:39:26.470Z,16.00
2023-06-17T02:41:54.624Z,15.90
2023-06-17T02:44:21.614Z,15.90
2023-06-17T02:46:48.556Z,15.80
2023-06-17T02:49:15.590Z,15.80
2023-06-17T02:51:43.959Z,15.80
2023-06-17T02:54:12.209Z,15.70
2023-06-17T02:56:39.266Z,15.70
2023-06-17T02:59:09.350Z,15.70
2023-06-17T03:01:40.457Z,15.60
2023-06-17T03:04:07.528Z,15.60
2023-06-17T03:06:37.180Z,15.60
2023-06-17T03:09:05.630Z,15.60
2023-06-17T03:11:34.003Z,15.70
2023-06-17T03:14:03.705Z,15.60
2023-06-17T03:16:35.057Z,15.50
2023-06-17T03:19:03.506Z,15.40
2023-06-17T03:21:33.705Z,15.40
2023-06-17T03:24:01.756Z,15.30
2023-06-17T03:26:31.954Z,15.30
2023-06-17T03:28:58.964Z,15.30
2023-06-17T03:31:25.920Z,15.30
2023-06-17T03:33:54.807Z,15.30
2023-06-17T03:36:31.121Z,15.20
2023-06-17T03:38:58.605Z,15.10
2023-06-17T03:41:28.050Z,15.00
2023-06-17T03:43:56.322Z,15.00
2023-06-17T03:46:23.412Z,15.00
2023-06-17T03:48:50.467Z,15.00
2023-06-17T03:51:19.653Z,15.00
2023-06-17T03:53:47.364Z,14.90
2023-06-17T03:56:15.423Z,14.90
2023-06-17T03:58:42.457Z,14.90
2023-06-17T04:01:13.997Z,14.90
2023-06-17T04:03:43.176Z,14.90
2023-06-17T04:06:10.827Z,14.90
2023-06-17T04:08:38.577Z,14.90
2023-06-17T04:11:05.503Z,14.90
2023-06-17T04:13:34.685Z,14.80
2023-06-17T04:16:01.955Z,14.70
2023-06-17T04:18:30.442Z,14.60
2023-06-17T04:20:57.794Z,14.60
2023-06-17T04:23:28.039Z,14.60
2023-06-17T04:25:57.807Z,14.60
2023-06-17T04:28:25.084Z,14.60
2023-06-17T04:30:54.149Z,14.70
2023-06-17T04:33:21.118Z,14.70
2023-06-17T04:35:51.074Z,14.70
2023-06-17T04:38:18.399Z,14.70
2023-06-17T04:40:46.596Z,14.70
2023-06-17T04:43:14.051Z,14.60
2023-06-17T04:45:42.989Z,14.60
2023-06-17T04:48:10.982Z,14.60
2023-06-17T04:50:38.631Z,14.60
2023-06-17T04:53:07.029Z,14.70
2023-06-17T04:55:37.463Z,14.70
2023-06-17T04:58:06.601Z,14.70
2023-06-17T05:00:48.365Z,14.70
2023-06-17T05:03:19.678Z,14.80
2023-06-17T05:05:47.315Z,14.90
2023-06-17T05:08:15.864Z,14.90
2023-06-17T05:10:42.841Z,15.10
2023-06-17T05:13:10.377Z,15.10
2023-06-17T05:15:37.375Z,15.20
2023-06-17T05:18:04.431Z,15.30
2023-06-17T05:20:31.381Z,15.30
2023-06-17T05:22:58.450Z,15.40
2023-06-17T05:25:27.036Z,15.50
2023-06-17T05:27:53.999Z,15.50
2023-06-17T05:30:23.938Z,15.60
2023-06-17T05:32:54.325Z,15.60
2023-06-17T05:35:21.451Z,15.70
2023-06-17T05:37:48.452Z,15.80
2023-06-17T05:40:16.128Z,15.80
2023-06-17T05:42:45.524Z,15.90
2023-06-17T05:45:13.136Z,15.90
2023-06-17T05:47:40.140Z,16.00
2023-06-17T05:50:07.526Z,16.00
2023-06-17T05:52:35.607Z,16.10
2023-06-17T05:55:02.634Z,16.20
2023-06-17T05:57:29.698Z,16.20
2023-06-17T05:59:58.055Z,16.30
2023-06-17T06:02:25.016Z,16.40
2023-06-17T06:04:51.918Z,16.40
2023-06-17T06:07:18.788Z,16.40
2023-06-17T06:09:46.090Z,16.50
2023-06-17T06:12:13.786Z,16.60
2023-06-17T06:14:42.272Z,16.70
2023-06-17T06:17:10.789Z,16.80
2023-06-17T06:19:37.948Z,16.90
2023-06-17T06:22:06.183Z,17.00
2023-06-17T06:24:34.454Z,17.10
2023-06-17T06:27:02.534Z,17.20
2023-06-17T06:29:29.655Z,17.30
2023-06-17T06:31:57.029Z,17.40
2023-06-17T06:34:25.468Z,17.50
2023-06-17T06:36:52.390Z,17.60
2023-06-17T06:39:19.959Z,17.70
2023-06-17T06:41:47.520Z,17.80
2023-06-17T06:44:34.373Z,17.90
2023-06-17T06:47:01.651Z,18.00
2023-06-17T06:49:31.732Z,18.10
2023-06-17T06:51:58.718Z,18.20
2023-06-17T06:54:25.798Z,18.30
2023-06-17T06:56:52.697Z,18.50
2023-06-17T06:59:19.749Z,18.50
2023-06-17T07:01:46.682Z,18.70
2023-06-17T07:04:13.964Z,18.80
2023-06-17T07:06:42.566Z,18.90
2023-06-17T07:09:14.388Z,19.00
2023-06-17T07:11:41.392Z,19.10
2023-06-17T07:14:08.593Z,19.20
2023-06-17T07:16:35.829Z,19.30
2023-06-17T07:19:04.405Z,19.40
2023-06-17T07:21:32.013Z,19.50
2023-06-17T07:24:00.586Z,19.70
2023-06-17T07:26:28.014Z,19.80
2023-06-17T07:28:55.397Z,19.90
2023-06-17T07:31:23.630Z,20.00
2023-06-17T07:33:55.814Z,20.10
2023-06-17T07:36:26.336Z,20.20
2023-06-17T07:38:53.475Z,20.30
2023-06-17T07:41:21.806Z,20.40
2023-06-17T07:43:48.757Z,20.60
2023-06-17T07:46:18.957Z,20.70
2023-06-17T07:48:45.961Z,20.80
2023-06-17T07:51:12.918Z,20.90
2023-06-17T07:53:39.984Z,21.00
2023-06-17T07:56:06.981Z,21.10
2023-06-17T07:58:35.214Z,21.20
2023-06-17T08:01:02.692Z,21.40
2023-06-17T08:03:30.337Z,21.50
2023-06-17T08:05:58.288Z,21.60
2023-06-17T08:08:25.255Z,21.70
2023-06-17T08:10:52.206Z,21.80
2023-06-17T08:13:19.110Z,22.00
2023-06-17T08:15:47.431Z,22.10
2023-06-17T08:18:14.451Z,22.20
2023-06-17T08:20:42.406Z,22.30
2023-06-17T08:23:09.305Z,22.40
2023-06-17T08:25:36.626Z,22.50
2023-06-17T08:28:04.013Z,22.60
2023-06-17T08:30:31.033Z,22.70
2023-06-17T08:32:59.329Z,22.70
2023-06-17T08:35:26.236Z,22.70
2023-06-17T08:37:53.210Z,22.80
2023-06-17T08:40:23.051Z,22.80
2023-06-17T08:42:57.315Z,23.00
2023-06-17T08:45:25.033Z,23.10
2023-06-17T08:47:52.268Z,23.20
2023-06-17T08:50:21.156Z,23.30
2023-06-17T08:52:50.730Z,23.50
2023-06-17T08:55:18.749Z,23.60
2023-06-17T08:57:47.303Z,23.70
2023-06-17T09:00:15.813Z,23.90
2023-06-17T09:02:46.111Z,24.00
2023-06-17T09:05:13.511Z,24.10
2023-06-17T09:07:42.891Z,24.30
2023-06-17T09:10:10.874Z,24.30
2023-06-17T09:12:38.840Z,24.50
2023-06-17T09:15:07.380Z,24.60
2023-06-17T09:17:34.488Z,24.90
2023-06-17T09:20:11.923Z,25.00
2023-06-17T09:22:45.872Z,25.20
2023-06-17T09:25:14.638Z,25.20
2023-06-17T09:28:00.911Z,25.20
2023-06-17T09:30:37.663Z,25.30
2023-06-17T09:33:05.765Z,25.30
2023-06-17T09:35:37.932Z,25.30
2023-06-17T09:38:06.700Z,25.40
2023-06-17T09:40:34.897Z,25.70
2023-06-17T09:43:20.931Z,26.10
2023-06-17T09:45:51.251Z,26.40
2023-06-17T09:48:18.666Z,26.80
2023-06-17T09:50:45.985Z,26.90
2023-06-17T09:53:15.184Z,27.10
2023-06-17T09:55:42.668Z,27.30
2023-06-17T09:58:10.106Z,27.50
2023-06-17T10:00:37.747Z,27.50
2023-06-17T10:03:05.502Z,27.50
2023-06-17T10:05:32.689Z,27.40
2023-06-17T10:07:59.950Z,27.30
2023-06-17T10:10:28.385Z,27.10
2023-06-17T10:12:57.844Z,27.00
2023-06-17T10:15:26.227Z,27.00
2023-06-17T10:17:54.624Z,27.10
2023-06-17T10:20:24.488Z,27.30
2023-06-17T10:22:55.935Z,27.40
2023-06-17T10:25:25.334Z,27.60
2023-06-17T10:27:54.790Z,27.70
2023-06-17T10:30:26.044Z,27.80
2023-06-17T10:32:55.776Z,28.20
2023-06-17T10:35:22.858Z,28.40
2023-06-17T10:37:51.267Z,28.70
2023-06-17T10:40:23.864Z,29.00
2023-06-17T10:42:58.690Z,29.30
2023-06-17T10:45:26.388Z,29.70
2023-06-17T10:48:13.881Z,30.00
2023-06-17T10:50:40.888Z,30.20
2023-06-17T10:53:08.610Z,30.60
2023-06-17T10:55:35.825Z,31.00
2023-06-17T10:58:04.272Z,31.30
2023-06-17T11:00:31.294Z,31.50
2023-06-17T11:02:58.291Z,31.70
2023-06-17T11:05:25.558Z,31.80
2023-06-17T11:07:52.484Z,32.00
2023-06-17T11:12:53.559Z,33.00
2023-06-17T11:15:25.826Z,33.50
2023-06-17T11:18:02.280Z,33.80
2023-06-17T11:20:31.066Z,34.20
2023-06-17T11:22:58.076Z,34.60
2023-06-17T11:25:43.504Z,34.70
2023-06-17T11:28:12.841Z,34.60
2023-06-17T11:30:42.140Z,34.30
2023-06-17T11:33:10.184Z,34.20
2023-06-17T11:35:39.105Z,34.10
2023-06-17T11:38:06.226Z,33.40
2023-06-17T11:40:33.165Z,33.00
2023-06-17T11:43:00.904Z,32.70
2023-06-17T11:45:29.352Z,32.70
2023-06-17T11:47:57.921Z,32.70
2023-06-17T11:50:29.983Z,33.20
2023-06-17T11:52:59.891Z,33.80
2023-06-17T11:55:36.878Z,34.40
2023-06-17T11:58:05.084Z,34.90
2023-06-17T12:00:36.904Z,35.10
2023-06-17T12:03:05.905Z,35.20
2023-06-17T12:05:33.262Z,35.20
2023-06-17T12:08:01.596Z,35.10
2023-06-17T12:10:28.734Z,34.60
2023-06-17T12:13:00.050Z,33.90
2023-06-17T12:18:11.514Z,32.90
2023-06-17T12:20:39.047Z,32.50
2023-06-17T12:23:06.179Z,31.90
2023-06-17T12:25:36.150Z,32.10
2023-06-17T12:28:03.270Z,32.60
2023-06-17T12:30:31.051Z,33.10
2023-06-17T12:32:58.391Z,33.20
2023-06-17T12:35:26.807Z,33.10
2023-06-17T12:37:56.387Z,33.10
2023-06-17T12:40:23.813Z,32.80
2023-06-17T12:42:50.754Z,32.70
2023-06-17T12:45:18.400Z,32.40
2023-06-17T12:47:45.976Z,32.10
2023-06-17T12:50:13.610Z,31.50
2023-06-17T12:52:42.490Z,31.40
2023-06-17T12:55:09.995Z,31.50
2023-06-17T12:57:37.593Z,31.70
2023-06-17T13:00:07.381Z,32.20
2023-06-17T13:02:36.935Z,32.80
2023-06-17T13:05:04.598Z,33.00
2023-06-17T13:07:32.036Z,33.00
2023-06-17T13:10:00.335Z,33.20
2023-06-17T13:12:27.245Z,33.40
2023-06-17T13:14:54.156Z,33.60
2023-06-17T13:17:21.132Z,34.10
2023-06-17T13:19:48.044Z,34.50
2023-06-17T13:22:14.983Z,34.70
2023-06-17T13:24:42.091Z,34.50
2023-06-17T13:27:12.267Z,34.20
2023-06-17T13:29:39.501Z,33.70
2023-06-17T13:32:07.124Z,33.80
2023-06-17T13:34:34.063Z,34.20
2023-06-17T13:37:01.185Z,34.40
2023-06-17T13:39:28.199Z,34.50
2023-06-17T13:41:55.214Z,34.10
2023-06-17T13:44:23.504Z,33.70
2023-06-17T13:46:50.858Z,33.30
2023-06-17T13:49:17.911Z,32.70
2023-06-17T13:51:46.181Z,32.00
2023-06-17T13:54:13.160Z,31.70
2023-06-17T13:56:40.086Z,31.90
2023-06-17T13:59:07.975Z,32.40
2023-06-17T14:01:36.266Z,33.10
2023-06-17T14:04:03.438Z,33.60
2023-06-17T14:06:32.603Z,34.00
2023-06-17T14:08:59.984Z,34.00
2023-06-17T14:11:27.050Z,34.30
2023-06-17T14:13:53.954Z,34.50
2023-06-17T14:16:20.999Z,34.80
2023-06-17T14:18:50.774Z,35.00
2023-06-17T14:21:28.126Z,35.00
2023-06-17T14:24:02.540Z,35.00
2023-06-17T14:26:29.596Z,35.00
2023-06-17T14:28:56.606Z,34.80
2023-06-17T14:31:23.765Z,34.70
2023-06-17T14:33:52.106Z,34.50
2023-06-17T14:36:19.207Z,34.50
2023-06-17T14:38:46.285Z,34.70
2023-06-17T14:41:13.323Z,34.90
2023-06-17T14:43:40.640Z,35.00
2023-06-17T14:46:07.891Z,35.00
2023-06-17T14:48:34.920Z,35.10
2023-06-17T14:51:03.699Z,34.80
2023-06-17T14:53:31.335Z,34.40
2023-06-17T14:56:33.490Z,34.10
2023-06-17T14:59:01.899Z,34.00
2023-06-17T15:01:33.297Z,33.70
2023-06-17T15:04:00.497Z,33.60
2023-06-17T15:06:28.793Z,33.60
2023-06-17T15:09:23.799Z,33.40
2023-06-17T15:11:50.744Z,33.00
2023-06-17T15:14:17.673Z,32.60
2023-06-17T15:16:44.614Z,32.60
2023-06-17T15:19:11.587Z,32.70
2023-06-17T15:21:39.996Z,32.90
2023-06-17T15:24:08.818Z,32.90
2023-06-17T15:26:35.883Z,32.90
2023-06-17T15:29:02.971Z,32.80
2023-06-17T15:31:30.078Z,32.70
2023-06-17T15:33:57.114Z,32.60
2023-06-17T15:36:24.011Z,32.60
2023-06-17T15:38:52.264Z,32.40
2023-06-17T15:41:19.217Z,32.40
2023-06-17T15:43:46.444Z,32.10
2023-06-17T15:46:13.372Z,32.00
2023-06-17T15:48:40.995Z,32.00
2023-06-17T15:51:07.948Z,31.90
2023-06-17T15:53:34.832Z,31.90
2023-06-17T15:56:03.250Z,31.80
2023-06-17T15:58:30.165Z,31.70
2023-06-17T16:00:57.179Z,31.50
2023-06-17T16:03:30.734Z,31.20
2023-06-17T16:05:58.957Z,30.80
2023-06-17T16:08:26.190Z,30.70
2023-06-17T16:10:53.684Z,30.60
2023-06-17T16:13:22.928Z,30.60
2023-06-17T16:15:49.906Z,30.60
2023-06-17T16:18:16.826Z,30.50
2023-06-17T16:20:43.708Z,30.40
2023-06-17T16:23:10.589Z,30.40
2023-06-17T16:25:49.969Z,30.30
2023-06-17T16:28:23.774Z,30.10
2023-06-17T16:30:50.862Z,30.10
2023-06-17T16:33:17.935Z,30.10
2023-06-17T16:35:44.963Z,30.10
2023-06-17T16:38:11.866Z,30.00
2023-06-17T16:40:38.751Z,30.00
2023-06-17T16:43:05.719Z,29.90
2023-06-17T16:45:34.595Z,29.80
2023-06-17T16:48:03.880Z,29.70
2023-06-17T16:50:30.835Z,29.60
2023-06-17T16:52:57.701Z,29.50
2023-06-17T16:55:24.900Z,29.40
2023-06-17T16:57:51.818Z,29.30
2023-06-17T17:00:19.543Z,29.20
2023-06-17T17:02:48.086Z,29.10
2023-06-17T17:05:15.165Z,29.00
2023-06-17T17:07:42.072Z,28.80
2023-06-17T17:10:09.567Z,28.70
2023-06-17T17:12:37.277Z,28.60
2023-06-17T17:15:04.627Z,28.50
2023-06-17T17:17:31.523Z,28.40
2023-06-17T17:19:59.946Z,28.40
2023-06-17T17:22:26.834Z,28.20
2023-06-17T17:24:54.107Z,28.20
2023-06-17T17:27:21.106Z,28.10
2023-06-17T17:29:48.010Z,28.10
2023-06-17T17:32:14.902Z,28.00
2023-06-17T17:34:41.788Z,27.90
2023-06-17T17:37:10.261Z,27.90
2023-06-17T17:39:37.161Z,27.80
2023-06-17T17:42:04.725Z,27.80
2023-06-17T17:44:31.649Z,27.80
2023-06-17T17:46:58.578Z,27.70
2023-06-17T17:49:25.508Z,27.70
2023-06-17T17:51:52.394Z,27.70
2023-06-17T17:54:20.721Z,27.60
2023-06-17T17:56:47.606Z,27.60
2023-06-17T17:59:14.510Z,27.50
2023-06-17T18:01:41.709Z,27.40
2023-06-17T18:04:10.071Z,27.30
2023-06-17T18:06:37.431Z,27.20
2023-06-17T18:09:04.728Z,27.20
2023-06-17T18:11:33.005Z,27.20
2023-06-17T18:14:00.095Z,27.10
2023-06-17T18:16:27.220Z,27.10
2023-06-17T18:18:54.244Z,27.00
2023-06-17T18:21:21.263Z,27.00
2023-06-17T18:23:48.284Z,27.00
2023-06-17T18:26:15.281Z,27.00
2023-06-17T18:28:43.519Z,26.90
2023-06-17T18:31:10.531Z,26.80
2023-06-17T18:33:37.600Z,26.70
2023-06-17T18:36:05.325Z,26.70
2023-06-17T18:38:32.288Z,26.60
2023-06-17T18:40:59.209Z,26.60
2023-06-17T18:43:26.124Z,26.50
2023-06-17T18:45:54.380Z,26.50
2023-06-17T18:48:21.394Z,26.40
2023-06-17T18:50:48.406Z,26.30
2023-06-17T18:53:15.554Z,26.20
2023-06-17T18:55:42.610Z,26.20
2023-06-17T18:58:09.537Z,26.10
2023-06-17T19:00:36.685Z,26.00
2023-06-17T19:03:05.783Z,26.00
2023-06-17T19:05:32.822Z,25.80
2023-06-17T19:08:01.075Z,25.70
2023-06-17T19:10:27.961Z,25.70
2023-06-17T19:12:54.900Z,25.60
2023-06-17T19:15:21.896Z,25.50
2023-06-17T19:17:57.854Z,25.40
2023-06-17T19:20:26.347Z,25.30
2023-06-17T19:22:53.578Z,25.20
2023-06-17T19:25:20.566Z,25.10
2023-06-17T19:27:47.508Z,25.00
2023-06-17T19:30:14.649Z,24.90
2023-06-17T19:32:41.702Z,24.90
2023-06-17T19:35:09.553Z,24.80
2023-06-17T19:37:39.242Z,24.60
2023-06-17T19:40:06.929Z,24.60
2023-06-17T19:42:33.860Z,24.50
2023-06-17T19:45:00.886Z,24.40
2023-06-17T19:47:28.482Z,24.30
2023-06-17T19:49:58.936Z,24.10
2023-06-17T19:52:25.971Z,24.00
2023-06-17T19:54:54.568Z,23.90
2023-06-17T19:57:21.549Z,23.80
2023-06-17T19:59:51.526Z,23.70
2023-06-17T20:02:20.257Z,23.50
2023-06-17T20:04:47.474Z,23.40
2023-06-17T20:07:14.429Z,23.30
2023-06-17T20:09:41.452Z,23.20
2023-06-17T20:12:10.128Z,23.20
2023-06-17T20:14:37.594Z,23.10
2023-06-17T20:17:05.071Z,23.10
2023-06-17T20:19:32.011Z,22.90
2023-06-17T20:21:58.956Z,22.90
2023-06-17T20:24:25.997Z,22.80
2023-06-17T20:26:53.032Z,22.80
2023-06-17T20:29:21.265Z,22.70
2023-06-17T20:31:48.216Z,22.50
2023-06-17T20:34:15.148Z,22.40
2023-06-17T20:36:42.848Z,22.30
2023-06-17T20:39:10.715Z,22.30
2023-06-17T20:41:37.684Z,22.20
2023-06-17T20:44:05.103Z,22.20
2023-06-17T20:46:33.449Z,22.10
2023-06-17T20:49:00.486Z,22.00
2023-06-17T20:51:27.422Z,22.00
2023-06-17T20:53:54.335Z,21.90
2023-06-17T20:56:23.020Z,21.90
2023-06-17T20:58:51.455Z,21.80
2023-06-17T21:01:20.941Z,21.70
2023-06-17T21:03:49.315Z,21.70
2023-06-17T21:06:16.285Z,21.60
2023-06-17T21:08:43.218Z,21.60
2023-06-17T21:11:10.117Z,21.40
2023-06-17T21:13:37.018Z,21.30
2023-06-17T21:16:04.194Z,21.10
2023-06-17T21:18:31.635Z,21.10
2023-06-17T21:20:59.884Z,20.90
2023-06-17T21:23:27.515Z,20.90
2023-06-17T21:25:57.748Z,20.70
2023-06-17T21:28:25.908Z,20.70
2023-06-17T21:30:52.962Z,20.70
2023-06-17T21:33:20.077Z,20.50
2023-06-17T21:35:47.015Z,20.50
2023-06-17T21:38:15.400Z,20.40
2023-06-17T21:40:42.369Z,20.40
2023-06-17T21:43:09.274Z,20.30
2023-06-17T21:45:36.190Z,20.20
2023-06-17T21:48:03.230Z,20.20
2023-06-17T21:50:33.316Z,20.10
2023-06-17T21:53:00.232Z,20.10
2023-06-17T21:55:28.476Z,20.10
2023-06-17T21:57:55.578Z,20.10
2023-06-17T22:00:23.644Z,20.00
2023-06-17T22:02:51.201Z,20.00
2023-06-17T22:05:18.637Z,19.90
2023-06-17T22:07:45.752Z,19.90
2023-06-17T22:10:12.911Z,19.80
2023-06-17T22:12:41.175Z,19.80
2023-06-17T22:15:08.997Z,19.80
2023-06-17T22:17:36.126Z,19.80
2023-06-17T22:20:03.831Z,19.80
2023-06-17T22:22:30.852Z,19.70
2023-06-17T22:24:57.839Z,19.70
2023-06-17T22:27:24.771Z,19.70
2023-06-17T22:29:53.152Z,19.70
2023-06-17T22:32:20.043Z,19.80
2023-06-17T22:34:47.127Z,19.80
2023-06-17T22:37:14.745Z,19.70
2023-06-17T22:39:41.666Z,19.70
2023-06-17T22:42:08.720Z,19.60
2023-06-17T22:44:35.688Z,19.60
2023-06-17T22:47:04.539Z,19.60
2023-06-17T22:49:32.411Z,19.60
2023-06-17T22:51:59.330Z,19.50
2023-06-17T22:54:26.462Z,19.50
2023-06-17T22:56:53.355Z,19.50
2023-06-17T22:59:20.373Z,19.50
2023-06-17T23:01:47.284Z,19.60
2023-06-17T23:04:15.715Z,19.60
2023-06-17T23:06:42.617Z,19.60
2023-06-17T23:09:09.999Z,19.50
2023-06-17T23:11:36.941Z,19.50
2023-06-17T23:14:03.906Z,19.50
2023-06-17T23:16:30.955Z,19.50
2023-06-17T23:18:57.907Z,19.50
2023-06-17T23:21:27.081Z,19.50
2023-06-17T23:23:54.203Z,19.50
2023-06-17T23:26:21.136Z,19.40
2023-06-17T23:28:49.540Z,19.40
2023-06-17T23:31:17.208Z,19.40
2023-06-17T23:33:44.169Z,19.40
2023-06-17T23:36:11.080Z,19.30
2023-06-17T23:38:40.731Z,19.30
2023-06-17T23:41:07.644Z,19.10
2023-06-17T23:43:34.531Z,19.10
2023-06-17T23:46:01.785Z,19.00
2023-06-17T23:48:28.827Z,18.90
2023-06-17T23:50:55.940Z,18.90
2023-06-17T23:53:22.955Z,18.80
2023-06-17T23:55:51.246Z,18.70
2023-06-17T23:58:18.145Z,18.70
